Time;durP1;ratioP1;P1;durP2;ratioP2;P2;SDS_P1;SDS_P2;PMS_P1;PMS_P2;Temp;Humidity;BMP_temperature;BMP_pressure;BME280_temperature;BME280_humidity;BME280_pressure;Samples;Min_cycle;Max_cycle;Signal;HPM_P1;HPM_P2
2022/10/07 00:00:52;;;;;;;10.83;3.43;;;;;;;;;;5070822;28;20222;-82
2022/10/07 00:03:21;;;;;;;7.00;2.87;;;;;;;;;;5042000;28;20222;-82
2022/10/07 00:05:59;;;;;;;9.50;2.53;;;;;;;;;;5042651;28;20226;-82
2022/10/07 00:08:28;;;;;;;9.03;2.63;;;;;;;;;;5052132;28;20316;-82
2022/10/07 00:10:57;;;;;;;11.70;3.33;;;;;;;;;;5036689;28;20207;-82
2022/10/07 00:13:27;;;;;;;14.93;4.00;;;;;;;;;;5051125;28;20203;-82
2022/10/07 00:15:55;;;;;;;9.40;2.80;;;;;;;;;;5043844;28;20271;-82
2022/10/07 00:18:24;;;;;;;8.53;2.20;;;;;;;;;;5040760;28;20267;-82
2022/10/07 00:20:52;;;;;;;6.03;2.50;;;;;;;;;;5061007;28;20244;-82
2022/10/07 00:23:20;;;;;;;10.30;2.63;;;;;;;;;;5035829;28;20302;-82
2022/10/07 00:25:49;;;;;;;8.23;2.67;;;;;;;;;;5063745;28;20218;-82
2022/10/07 00:28:17;;;;;;;8.13;2.70;;;;;;;;;;5053274;28;20214;-82
2022/10/07 00:30:47;;;;;;;9.67;3.30;;;;;;;;;;5042663;28;20273;-82
2022/10/07 00:33:15;;;;;;;8.10;3.33;;;;;;;;;;5054948;28;20198;-82
2022/10/07 00:35:44;;;;;;;11.97;3.23;;;;;;;;;;5053738;28;20234;-82
2022/10/07 00:38:12;;;;;;;12.80;3.30;;;;;;;;;;5041594;28;20202;-82
2022/10/07 00:40:41;;;;;;;9.43;3.33;;;;;;;;;;5041280;28;20207;-82
2022/10/07 00:43:19;;;;;;;12.27;2.90;;;;;;;;;;5035474;28;20239;-82
2022/10/07 00:45:49;;;;;;;10.13;3.10;;;;;;;;;;5037501;28;20256;-82
2022/10/07 00:48:21;;;;;;;15.07;4.10;;;;;;;;;;5045178;28;20210;-82
2022/10/07 00:50:50;;;;;;;12.97;2.47;;;;;;;;;;5051665;28;20218;-82
2022/10/07 00:53:19;;;;;;;9.90;3.07;;;;;;;;;;5035698;28;20210;-82
2022/10/07 00:55:47;;;;;;;13.37;3.33;;;;;;;;;;5052066;28;20187;-82
2022/10/07 00:58:18;;;;;;;14.33;3.53;;;;;;;;;;5042891;28;20191;-82
2022/10/07 01:00:47;;;;;;;12.00;3.00;;;;;;;;;;5052429;28;20198;-82
2022/10/07 01:03:17;;;;;;;10.93;2.83;;;;;;;;;;5071169;28;20305;-82
2022/10/07 01:05:45;;;;;;;8.43;3.03;;;;;;;;;;5053059;28;20217;-82
2022/10/07 01:08:14;;;;;;;9.57;3.00;;;;;;;;;;5056942;28;20203;-82
2022/10/07 01:10:50;;;;;;;13.80;3.80;;;;;;;;;;5029170;28;20194;-82
2022/10/07 01:13:21;;;;;;;10.37;2.67;;;;;;;;;;5040564;28;20207;-82
2022/10/07 01:15:53;;;;;;;14.40;3.33;;;;;;;;;;5042724;28;20265;-82
2022/10/07 01:18:26;;;;;;;11.57;3.80;;;;;;;;;;5068697;28;20207;-82
2022/10/07 01:20:58;;;;;;;10.53;3.40;;;;;;;;;;5059269;28;20206;-82
2022/10/07 01:23:36;;;;;;;11.30;3.50;;;;;;;;;;5050902;28;20206;-82
2022/10/07 01:26:23;;;;;;;11.23;3.23;;;;;;;;;;5040188;28;20203;-82
2022/10/07 01:28:56;;;;;;;10.60;3.67;;;;;;;;;;5034418;28;20255;-82
2022/10/07 01:31:27;;;;;;;6.53;2.60;;;;;;;;;;5046050;28;20200;-82
2022/10/07 01:33:56;;;;;;;7.97;3.27;;;;;;;;;;5051737;28;20253;-82
2022/10/07 01:36:25;;;;;;;8.93;3.30;;;;;;;;;;5047591;28;20223;-82
2022/10/07 01:39:01;;;;;;;15.60;4.87;;;;;;;;;;5033766;28;20275;-82
2022/10/07 01:41:30;;;;;;;9.73;3.27;;;;;;;;;;5027948;28;20194;-82
2022/10/07 01:44:00;;;;;;;15.63;4.10;;;;;;;;;;5040247;28;20215;-82
2022/10/07 01:46:30;;;;;;;16.63;3.53;;;;;;;;;;5045490;28;20229;-82
2022/10/07 01:48:58;;;;;;;11.97;3.80;;;;;;;;;;5051439;28;20224;-82
2022/10/07 01:51:29;;;;;;;15.00;3.30;;;;;;;;;;5041958;28;20202;-82
2022/10/07 01:54:01;;;;;;;9.87;3.27;;;;;;;;;;5056119;28;20285;-82
2022/10/07 01:56:39;;;;;;;18.87;3.77;;;;;;;;;;5053888;28;20260;-82
2022/10/07 01:59:28;;;;;;;10.57;2.83;;;;;;;;;;5034924;28;20257;-82
2022/10/07 02:02:03;;;;;;;6.20;2.73;;;;;;;;;;5047377;28;20304;-82
2022/10/07 02:04:41;;;;;;;11.67;4.83;;;;;;;;;;5044423;28;20306;-82
2022/10/07 02:07:14;;;;;;;9.60;3.27;;;;;;;;;;5037587;28;20202;-82
2022/10/07 02:09:48;;;;;;;19.07;4.33;;;;;;;;;;5053380;28;20210;-82
2022/10/07 02:12:18;;;;;;;12.20;4.30;;;;;;;;;;5051595;28;20232;-82
2022/10/07 02:14:52;;;;;;;12.17;2.73;;;;;;;;;;5040753;28;20195;-82
2022/10/07 02:17:22;;;;;;;14.73;3.50;;;;;;;;;;5030082;28;20225;-82
2022/10/07 02:19:55;;;;;;;8.37;2.87;;;;;;;;;;5038089;28;20305;-82
2022/10/07 02:22:25;;;;;;;11.83;4.43;;;;;;;;;;5034173;28;20202;-82
2022/10/07 02:24:57;;;;;;;13.63;3.70;;;;;;;;;;5047896;28;20248;-82
2022/10/07 02:27:28;;;;;;;16.00;3.90;;;;;;;;;;5051571;28;20259;-82
2022/10/07 02:30:01;;;;;;;7.07;3.23;;;;;;;;;;5067871;28;20290;-82
2022/10/07 02:32:31;;;;;;;10.10;3.70;;;;;;;;;;5068079;28;20256;-82
2022/10/07 02:35:02;;;;;;;10.23;3.17;;;;;;;;;;5033382;28;20254;-82
2022/10/07 02:37:34;;;;;;;16.03;4.37;;;;;;;;;;5032771;28;20195;-82
2022/10/07 02:40:04;;;;;;;16.80;3.63;;;;;;;;;;5048974;28;20203;-81
2022/10/07 02:42:40;;;;;;;11.80;3.67;;;;;;;;;;5049223;28;20202;-82
2022/10/07 02:45:15;;;;;;;30.60;7.13;;;;;;;;;;5032736;28;20322;-82
2022/10/07 02:47:48;;;;;;;12.30;4.13;;;;;;;;;;5036280;28;20230;-82
2022/10/07 02:50:19;;;;;;;10.90;3.70;;;;;;;;;;5044560;28;20199;-82
2022/10/07 02:52:48;;;;;;;9.40;2.83;;;;;;;;;;5033187;28;20203;-82
2022/10/07 02:55:18;;;;;;;14.70;4.47;;;;;;;;;;5035140;28;20280;-82
2022/10/07 02:57:48;;;;;;;15.73;4.10;;;;;;;;;;5058750;28;20194;-82
2022/10/07 03:00:19;;;;;;;11.93;4.03;;;;;;;;;;5042172;28;20268;-82
2022/10/07 03:02:50;;;;;;;12.00;2.37;;;;;;;;;;5052023;28;20218;-82
2022/10/07 03:05:24;;;;;;;22.00;4.37;;;;;;;;;;5041940;28;20206;-82
2022/10/07 03:07:55;;;;;;;14.10;4.43;;;;;;;;;;5052848;28;20285;-82
2022/10/07 03:10:25;;;;;;;18.57;4.47;;;;;;;;;;5032206;28;20202;-82
2022/10/07 03:12:54;;;;;;;15.67;4.80;;;;;;;;;;5044685;28;20199;-82
2022/10/07 03:15:24;;;;;;;11.67;3.50;;;;;;;;;;5023098;28;20229;-82
2022/10/07 03:17:52;;;;;;;13.50;4.40;;;;;;;;;;5059204;28;20207;-82
2022/10/07 03:20:21;;;;;;;12.27;5.00;;;;;;;;;;5042420;28;20221;-82
2022/10/07 03:22:50;;;;;;;14.43;4.43;;;;;;;;;;5035284;28;20213;-82
2022/10/07 03:25:18;;;;;;;5.47;2.37;;;;;;;;;;5048594;28;20207;-82
2022/10/07 03:27:47;;;;;;;13.77;5.27;;;;;;;;;;5032197;28;20199;-82
2022/10/07 03:30:16;;;;;;;14.37;4.23;;;;;;;;;;5032895;28;20222;-82
2022/10/07 03:32:51;;;;;;;10.13;3.40;;;;;;;;;;5035680;28;20237;-82
2022/10/07 03:35:19;;;;;;;16.30;4.27;;;;;;;;;;5035746;28;20227;-82
2022/10/07 03:37:47;;;;;;;11.07;3.20;;;;;;;;;;5048456;28;20203;-82
2022/10/07 03:40:17;;;;;;;14.80;3.83;;;;;;;;;;5056965;28;20202;-82
2022/10/07 03:42:46;;;;;;;8.50;3.43;;;;;;;;;;5054253;28;20226;-82
2022/10/07 03:45:14;;;;;;;12.40;4.80;;;;;;;;;;5044510;28;20214;-82
2022/10/07 03:47:43;;;;;;;17.27;5.10;;;;;;;;;;5052779;28;20202;-83
2022/10/07 03:50:13;;;;;;;15.17;3.90;;;;;;;;;;5037198;28;20246;-82
2022/10/07 03:52:44;;;;;;;14.33;4.70;;;;;;;;;;5037226;28;20202;-82
2022/10/07 03:55:12;;;;;;;26.63;4.77;;;;;;;;;;5045821;28;20202;-83
2022/10/07 03:57:50;;;;;;;10.53;4.13;;;;;;;;;;5050265;28;20202;-82
2022/10/07 04:00:26;;;;;;;11.43;2.87;;;;;;;;;;5055238;28;20190;-82
2022/10/07 04:02:54;;;;;;;16.57;4.33;;;;;;;;;;5058436;28;20253;-82
2022/10/07 04:05:24;;;;;;;16.33;3.63;;;;;;;;;;5058710;28;20237;-82
2022/10/07 04:07:53;;;;;;;16.27;3.93;;;;;;;;;;5023215;28;20195;-82
2022/10/07 04:10:21;;;;;;;8.10;2.00;;;;;;;;;;5048284;28;20198;-83
2022/10/07 04:12:50;;;;;;;17.20;4.67;;;;;;;;;;5035229;28;20231;-82
2022/10/07 04:15:19;;;;;;;15.30;4.43;;;;;;;;;;5035555;28;20187;-82
2022/10/07 04:17:48;;;;;;;11.30;3.20;;;;;;;;;;5036200;28;20206;-82
2022/10/07 04:20:17;;;;;;;13.73;4.43;;;;;;;;;;5034994;28;20203;-82
2022/10/07 04:22:47;;;;;;;8.87;2.80;;;;;;;;;;5035177;28;20203;-82
2022/10/07 04:25:33;;;;;;;10.77;4.13;;;;;;;;;;5021961;28;20219;-82
2022/10/07 04:28:02;;;;;;;9.37;2.83;;;;;;;;;;5034950;28;20209;-82
2022/10/07 04:30:33;;;;;;;18.53;4.50;;;;;;;;;;5047842;28;20297;-82
2022/10/07 04:33:02;;;;;;;16.50;5.07;;;;;;;;;;5051130;28;20230;-82
2022/10/07 04:35:31;;;;;;;19.23;4.90;;;;;;;;;;5035488;28;20288;-82
2022/10/07 04:38:01;;;;;;;13.00;3.33;;;;;;;;;;5034917;28;20195;-82
2022/10/07 04:40:29;;;;;;;6.37;1.83;;;;;;;;;;5035192;28;20206;-83
2022/10/07 04:45:53;;;;;;;13.43;4.70;;;;;;;;;;5024428;28;20325;-82
2022/10/07 04:48:22;;;;;;;12.30;4.97;;;;;;;;;;5041573;28;20198;-82
2022/10/07 04:50:51;;;;;;;13.97;4.53;;;;;;;;;;5040062;28;20212;-82
2022/10/07 04:53:21;;;;;;;10.27;3.57;;;;;;;;;;5030212;28;20194;-83
2022/10/07 04:55:51;;;;;;;9.37;3.03;;;;;;;;;;5069098;28;20210;-82
2022/10/07 04:58:20;;;;;;;11.53;3.97;;;;;;;;;;5046963;28;20206;-82
2022/10/07 05:00:49;;;;;;;16.80;4.93;;;;;;;;;;5054736;28;20247;-82
2022/10/07 05:03:18;;;;;;;10.87;3.37;;;;;;;;;;5070810;28;20293;-82
2022/10/07 05:05:48;;;;;;;13.67;4.00;;;;;;;;;;5040471;28;20210;-83
2022/10/07 05:08:17;;;;;;;16.07;4.47;;;;;;;;;;5053902;28;20199;-83
2022/10/07 05:10:47;;;;;;;10.93;3.90;;;;;;;;;;5036435;28;20230;-82
2022/10/07 05:13:17;;;;;;;13.90;4.30;;;;;;;;;;5046929;28;20229;-83
2022/10/07 05:15:48;;;;;;;14.77;4.37;;;;;;;;;;5056806;28;20234;-82
2022/10/07 05:18:18;;;;;;;15.43;5.97;;;;;;;;;;5054924;28;20209;-82
2022/10/07 05:20:47;;;;;;;5.30;3.50;;;;;;;;;;5020722;28;20210;-83
2022/10/07 05:23:15;;;;;;;16.37;4.43;;;;;;;;;;5033624;28;20206;-82
2022/10/07 05:25:44;;;;;;;14.10;5.00;;;;;;;;;;5034822;28;20262;-82
2022/10/07 05:28:15;;;;;;;13.27;5.47;;;;;;;;;;5033465;28;20211;-82
2022/10/07 05:30:43;;;;;;;12.33;3.63;;;;;;;;;;5041932;28;20265;-82
2022/10/07 05:33:11;;;;;;;18.77;4.70;;;;;;;;;;5067173;28;20229;-82
2022/10/07 05:35:40;;;;;;;11.77;3.93;;;;;;;;;;5033772;28;20223;-82
2022/10/07 05:38:08;;;;;;;12.50;4.43;;;;;;;;;;5034195;28;20219;-82
2022/10/07 05:40:37;;;;;;;11.17;3.40;;;;;;;;;;5044042;28;20206;-82
2022/10/07 05:43:06;;;;;;;12.57;4.57;;;;;;;;;;5068799;28;20217;-81
2022/10/07 05:45:36;;;;;;;13.90;4.77;;;;;;;;;;5059203;28;20214;-82
2022/10/07 05:48:05;;;;;;;16.27;6.83;;;;;;;;;;5050506;28;20202;-82
2022/10/07 05:50:33;;;;;;;10.87;4.27;;;;;;;;;;5044830;28;20213;-82
2022/10/07 05:53:02;;;;;;;8.60;3.23;;;;;;;;;;5042350;28;20269;-82
2022/10/07 05:55:30;;;;;;;18.70;3.40;;;;;;;;;;5026941;28;20261;-82
2022/10/07 05:57:58;;;;;;;10.13;3.50;;;;;;;;;;5038338;28;20195;-83
2022/10/07 06:00:29;;;;;;;7.73;2.30;;;;;;;;;;5057323;28;20203;-82
2022/10/07 06:03:01;;;;;;;20.40;5.00;;;;;;;;;;5027308;28;20222;-82
2022/10/07 06:05:30;;;;;;;9.37;4.30;;;;;;;;;;5057778;28;20233;-83
2022/10/07 06:07:58;;;;;;;15.53;4.47;;;;;;;;;;5045393;28;20316;-84
2022/10/07 06:13:19;;;;;;;10.97;4.80;;;;;;;;;;5034033;28;20191;-83
2022/10/07 06:15:48;;;;;;;14.03;4.73;;;;;;;;;;5038333;28;20228;-83
2022/10/07 06:18:18;;;;;;;6.37;2.70;;;;;;;;;;5068745;28;20198;-84
2022/10/07 06:20:54;;;;;;;10.30;3.70;;;;;;;;;;5053781;28;20198;-83
2022/10/07 06:23:23;;;;;;;11.67;3.90;;;;;;;;;;5042271;28;20348;-83
2022/10/07 06:26:01;;;;;;;17.07;5.33;;;;;;;;;;5035607;28;20250;-84
2022/10/07 06:28:32;;;;;;;7.90;4.30;;;;;;;;;;5033013;28;20198;-82
2022/10/07 06:31:04;;;;;;;10.10;4.07;;;;;;;;;;5051647;28;20228;-82
2022/10/07 06:33:34;;;;;;;12.50;5.03;;;;;;;;;;5051455;28;20206;-83
2022/10/07 06:36:06;;;;;;;14.10;5.07;;;;;;;;;;5053138;28;20234;-82
2022/10/07 06:38:35;;;;;;;12.47;4.97;;;;;;;;;;5040079;28;20203;-83
2022/10/07 06:41:04;;;;;;;5.60;3.17;;;;;;;;;;5014057;28;20214;-82
2022/10/07 06:43:35;;;;;;;14.37;4.77;;;;;;;;;;5020022;28;20260;-83
2022/10/07 06:46:08;;;;;;;15.40;5.50;;;;;;;;;;5032133;28;20310;-82
2022/10/07 06:48:41;;;;;;;12.87;4.47;;;;;;;;;;5040859;28;20328;-82
2022/10/07 06:51:14;;;;;;;22.03;5.67;;;;;;;;;;5045907;28;20212;-82
2022/10/07 06:53:43;;;;;;;13.87;5.37;;;;;;;;;;5039805;28;20203;-83
2022/10/07 06:56:12;;;;;;;15.30;5.07;;;;;;;;;;5032816;28;20202;-83
2022/10/07 06:58:43;;;;;;;13.77;5.47;;;;;;;;;;5043424;28;20194;-83
2022/10/07 07:01:11;;;;;;;12.50;5.30;;;;;;;;;;5062985;28;20234;-83
2022/10/07 07:03:41;;;;;;;11.57;5.37;;;;;;;;;;5045694;28;20198;-83
2022/10/07 07:06:10;;;;;;;7.23;3.10;;;;;;;;;;5051717;28;20249;-82
2022/10/07 07:08:40;;;;;;;11.10;4.20;;;;;;;;;;5052057;28;20213;-83
2022/10/07 07:13:52;;;;;;;8.70;4.90;;;;;;;;;;5047653;28;20203;-83
2022/10/07 07:16:21;;;;;;;11.27;3.90;;;;;;;;;;5032237;28;20261;-82
2022/10/07 07:18:54;;;;;;;11.57;4.03;;;;;;;;;;5045132;28;20205;-83
2022/10/07 07:21:24;;;;;;;15.47;5.43;;;;;;;;;;5031795;28;20210;-83
2022/10/07 07:23:52;;;;;;;10.80;4.20;;;;;;;;;;5036448;28;20211;-83
2022/10/07 07:26:22;;;;;;;9.57;5.07;;;;;;;;;;5067949;28;20220;-83
2022/10/07 07:28:54;;;;;;;12.53;5.27;;;;;;;;;;5050698;28;20198;-83
2022/10/07 07:31:23;;;;;;;8.13;3.97;;;;;;;;;;5039431;28;20205;-83
2022/10/07 07:33:53;;;;;;;14.00;5.53;;;;;;;;;;5039025;28;20236;-83
2022/10/07 07:36:23;;;;;;;10.50;3.53;;;;;;;;;;5055168;28;20254;-82
2022/10/07 07:38:52;;;;;;;14.57;5.00;;;;;;;;;;5052382;28;20190;-82
2022/10/07 07:41:22;;;;;;;9.23;3.53;;;;;;;;;;5037243;28;20207;-83
2022/10/07 07:43:51;;;;;;;9.60;3.30;;;;;;;;;;5032449;28;20207;-83
2022/10/07 07:46:19;;;;;;;12.13;3.60;;;;;;;;;;5047355;28;20218;-83
2022/10/07 07:48:50;;;;;;;10.10;4.23;;;;;;;;;;5051124;28;20207;-83
2022/10/07 07:51:21;;;;;;;8.93;3.97;;;;;;;;;;5049196;28;20203;-82
2022/10/07 07:53:49;;;;;;;14.00;5.00;;;;;;;;;;5066856;28;20295;-83
2022/10/07 07:56:18;;;;;;;11.43;4.80;;;;;;;;;;5045474;28;20195;-83
2022/10/07 07:58:47;;;;;;;6.87;2.83;;;;;;;;;;5036309;28;20199;-83
2022/10/07 08:01:17;;;;;;;15.23;3.73;;;;;;;;;;5031674;28;20262;-83
2022/10/07 08:03:49;;;;;;;12.63;3.83;;;;;;;;;;5032217;28;20290;-83
2022/10/07 08:06:19;;;;;;;4.80;2.23;;;;;;;;;;5038340;28;20265;-83
2022/10/07 08:08:50;;;;;;;11.07;5.23;;;;;;;;;;5066111;28;20203;-83
2022/10/07 08:11:20;;;;;;;8.50;3.97;;;;;;;;;;5039915;28;20226;-83
2022/10/07 08:13:50;;;;;;;14.17;4.23;;;;;;;;;;5051305;28;20191;-83
2022/10/07 08:16:20;;;;;;;12.80;4.70;;;;;;;;;;5068221;28;20199;-83
2022/10/07 08:18:49;;;;;;;12.90;4.53;;;;;;;;;;5055790;28;20207;-83
2022/10/07 08:21:19;;;;;;;14.47;5.80;;;;;;;;;;5035235;28;20429;-83
2022/10/07 08:23:57;;;;;;;11.13;4.20;;;;;;;;;;5052544;28;20191;-82
2022/10/07 08:26:27;;;;;;;12.80;3.93;;;;;;;;;;5055323;28;20230;-83
2022/10/07 08:28:56;;;;;;;10.73;4.13;;;;;;;;;;5053466;28;20221;-83
2022/10/07 08:31:26;;;;;;;2.53;1.27;;;;;;;;;;5070263;28;20195;-83
2022/10/07 08:33:55;;;;;;;7.67;2.47;;;;;;;;;;5037130;28;20282;-83
2022/10/07 08:36:24;;;;;;;11.57;4.53;;;;;;;;;;5044677;28;20230;-83
2022/10/07 08:38:53;;;;;;;15.10;3.47;;;;;;;;;;5046678;28;20201;-83
2022/10/07 08:41:33;;;;;;;10.00;3.97;;;;;;;;;;5048707;28;20195;-84
2022/10/07 08:44:08;;;;;;;14.27;4.23;;;;;;;;;;5055272;28;20215;-84
2022/10/07 08:46:49;;;;;;;12.77;4.60;;;;;;;;;;5050798;28;20254;-84
2022/10/07 08:49:24;;;;;;;12.40;3.17;;;;;;;;;;5070269;28;20238;-83
2022/10/07 08:51:55;;;;;;;9.30;4.37;;;;;;;;;;5036029;28;20205;-87
2022/10/07 08:54:27;;;;;;;12.83;4.23;;;;;;;;;;5038471;28;20210;-87
2022/10/07 08:56:59;;;;;;;10.13;4.23;;;;;;;;;;5043837;28;20212;-87
2022/10/07 08:59:29;;;;;;;5.40;2.40;;;;;;;;;;5021876;28;20208;-87
2022/10/07 09:02:04;;;;;;;11.67;3.87;;;;;;;;;;5035510;28;20232;-86
2022/10/07 09:04:41;;;;;;;12.00;4.67;;;;;;;;;;5028063;28;20234;-86
2022/10/07 09:07:14;;;;;;;13.63;3.87;;;;;;;;;;5071136;28;20239;-87
2022/10/07 09:09:47;;;;;;;12.27;3.17;;;;;;;;;;5070994;28;20204;-86
2022/10/07 09:12:21;;;;;;;13.63;3.80;;;;;;;;;;5067313;28;20201;-85
2022/10/07 09:14:53;;;;;;;10.60;4.10;;;;;;;;;;5034137;28;20205;-86
2022/10/07 09:17:24;;;;;;;8.80;3.60;;;;;;;;;;5028178;28;20292;-86
2022/10/07 09:19:57;;;;;;;10.63;3.77;;;;;;;;;;5042386;28;20208;-86
2022/10/07 09:22:30;;;;;;;8.57;2.90;;;;;;;;;;5043151;28;20197;-86
2022/10/07 09:25:03;;;;;;;9.63;2.40;;;;;;;;;;5039724;28;20221;-87
2022/10/07 09:27:39;;;;;;;10.77;3.53;;;;;;;;;;5044448;28;20226;-86
2022/10/07 09:30:13;;;;;;;7.60;2.97;;;;;;;;;;5041539;28;20293;-86
2022/10/07 09:32:44;;;;;;;9.30;3.00;;;;;;;;;;5052975;28;20276;-86
2022/10/07 09:35:13;;;;;;;12.47;3.90;;;;;;;;;;5032373;28;20233;-87
2022/10/07 09:37:55;;;;;;;2.90;1.37;;;;;;;;;;5030182;28;20201;-86
2022/10/07 09:40:31;;;;;;;9.47;1.73;;;;;;;;;;5042100;28;20213;-87
2022/10/07 09:43:01;;;;;;;4.33;2.47;;;;;;;;;;5037903;28;20228;-87
2022/10/07 09:45:31;;;;;;;15.27;4.77;;;;;;;;;;5047039;28;20293;-87
2022/10/07 09:48:05;;;;;;;4.33;1.93;;;;;;;;;;5043643;28;20293;-88
2022/10/07 09:50:36;;;;;;;4.43;3.03;;;;;;;;;;5037011;28;20364;-87
2022/10/07 09:53:17;;;;;;;14.47;4.23;;;;;;;;;;5049201;28;20194;-87
2022/10/07 09:55:47;;;;;;;13.53;3.80;;;;;;;;;;5037278;28;20208;-87
2022/10/07 09:58:19;;;;;;;8.53;4.37;;;;;;;;;;5060489;28;20212;-86
2022/10/07 10:00:49;;;;;;;7.30;2.17;;;;;;;;;;5053421;28;20266;-87
2022/10/07 10:03:24;;;;;;;5.30;1.30;;;;;;;;;;5058514;28;20217;-87
2022/10/07 10:05:57;;;;;;;14.00;4.93;;;;;;;;;;5061600;28;20204;-87
2022/10/07 10:08:30;;;;;;;8.97;3.03;;;;;;;;;;5072769;28;20236;-87
2022/10/07 10:11:00;;;;;;;12.50;4.70;;;;;;;;;;5072444;28;20272;-86
2022/10/07 10:13:34;;;;;;;8.10;3.47;;;;;;;;;;5060045;28;20213;-87
2022/10/07 10:16:04;;;;;;;12.03;3.37;;;;;;;;;;5048464;28;20204;-87
2022/10/07 10:18:35;;;;;;;9.03;3.40;;;;;;;;;;5054578;28;20216;-86
2022/10/07 10:21:18;;;;;;;15.40;3.50;;;;;;;;;;5072405;28;20202;-86
2022/10/07 10:23:58;;;;;;;7.17;2.63;;;;;;;;;;5046560;28;20200;-87
2022/10/07 10:26:42;;;;;;;3.10;1.40;;;;;;;;;;5060564;28;20241;-86
2022/10/07 10:29:17;;;;;;;9.10;3.77;;;;;;;;;;5037636;28;20212;-88
2022/10/07 10:31:55;;;;;;;6.13;2.77;;;;;;;;;;5051895;28;20193;-86
2022/10/07 10:34:31;;;;;;;7.27;3.93;;;;;;;;;;5037977;28;20205;-86
2022/10/07 10:37:29;;;;;;;11.80;4.10;;;;;;;;;;5044224;28;20204;-89
2022/10/07 10:40:06;;;;;;;9.07;2.93;;;;;;;;;;5021738;28;20205;-87
2022/10/07 10:42:39;;;;;;;9.20;3.17;;;;;;;;;;5056418;28;20205;-87
2022/10/07 10:45:17;;;;;;;7.20;2.13;;;;;;;;;;5038496;28;20220;-87
2022/10/07 10:48:00;;;;;;;2.60;1.30;;;;;;;;;;5051788;28;20228;-86
2022/10/07 10:50:33;;;;;;;7.33;2.17;;;;;;;;;;5047824;28;20209;-88
2022/10/07 10:53:06;;;;;;;5.77;2.23;;;;;;;;;;5030846;28;20295;-88
2022/10/07 10:55:47;;;;;;;10.97;2.20;;;;;;;;;;5045733;28;20202;-87
2022/10/07 10:58:23;;;;;;;7.00;2.40;;;;;;;;;;5057282;28;20206;-86
2022/10/07 11:01:01;;;;;;;5.57;2.00;;;;;;;;;;5040611;28;20227;-87
2022/10/07 11:03:38;;;;;;;5.17;1.90;;;;;;;;;;5053210;28;20287;-87
2022/10/07 11:06:10;;;;;;;4.93;1.97;;;;;;;;;;5024421;28;20190;-87
2022/10/07 11:08:40;;;;;;;3.33;0.77;;;;;;;;;;5048374;28;20214;-87
2022/10/07 11:11:11;;;;;;;8.83;2.83;;;;;;;;;;5022291;28;20204;-87
2022/10/07 11:13:45;;;;;;;5.50;2.70;;;;;;;;;;5036279;28;20206;-88
2022/10/07 11:16:17;;;;;;;4.43;1.77;;;;;;;;;;5055568;28;20204;-87
2022/10/07 11:18:49;;;;;;;4.60;1.83;;;;;;;;;;5066926;28;20197;-87
2022/10/07 11:21:21;;;;;;;5.60;1.50;;;;;;;;;;5044302;28;20199;-86
2022/10/07 11:23:53;;;;;;;2.83;1.67;;;;;;;;;;5027764;28;20204;-87
2022/10/07 11:26:25;;;;;;;5.17;2.23;;;;;;;;;;5054592;28;20209;-86
2022/10/07 11:28:59;;;;;;;8.53;1.83;;;;;;;;;;5015864;28;20325;-88
2022/10/07 11:31:32;;;;;;;3.90;1.00;;;;;;;;;;5041618;28;20292;-87
2022/10/07 11:34:06;;;;;;;7.87;1.97;;;;;;;;;;5036220;28;20204;-88
2022/10/07 11:36:40;;;;;;;0.63;0.53;;;;;;;;;;5050168;28;20229;-88
2022/10/07 11:39:10;;;;;;;6.03;2.00;;;;;;;;;;5054795;28;20195;-88
2022/10/07 11:41:44;;;;;;;11.43;2.53;;;;;;;;;;5048984;28;20280;-87
2022/10/07 11:44:16;;;;;;;4.73;1.53;;;;;;;;;;5035475;28;20233;-87
2022/10/07 11:46:47;;;;;;;1.73;1.40;;;;;;;;;;5044017;28;20215;-87
2022/10/07 11:49:18;;;;;;;10.43;3.23;;;;;;;;;;5030583;28;20307;-87
2022/10/07 11:51:52;;;;;;;7.83;2.53;;;;;;;;;;5035947;28;20205;-88
2022/10/07 11:54:26;;;;;;;6.50;2.60;;;;;;;;;;5051569;28;20304;-87
2022/10/07 11:56:56;;;;;;;3.60;1.57;;;;;;;;;;5037421;28;20203;-88
2022/10/07 11:59:30;;;;;;;7.63;2.80;;;;;;;;;;5053726;28;20198;-87
2022/10/07 12:02:00;;;;;;;7.23;2.80;;;;;;;;;;5073489;28;20219;-86
2022/10/07 12:04:37;;;;;;;4.63;1.90;;;;;;;;;;5067146;28;20233;-87
2022/10/07 12:07:26;;;;;;;8.30;3.70;;;;;;;;;;5037209;28;20201;-87
2022/10/07 12:09:56;;;;;;;5.83;1.83;;;;;;;;;;5018049;28;20250;-87
2022/10/07 12:12:25;;;;;;;10.90;2.93;;;;;;;;;;5038416;28;20191;-88
2022/10/07 12:15:00;;;;;;;5.07;1.67;;;;;;;;;;5049657;28;20205;-87
2022/10/07 12:17:30;;;;;;;5.27;2.77;;;;;;;;;;5030705;28;20209;-87
2022/10/07 12:20:19;;;;;;;8.17;4.03;;;;;;;;;;5043017;28;20210;-88
2022/10/07 12:23:08;;;;;;;2.37;1.03;;;;;;;;;;5026267;28;20204;-88
2022/10/07 12:25:44;;;;;;;5.37;1.93;;;;;;;;;;5041630;28;20218;-86
2022/10/07 12:28:15;;;;;;;8.77;2.80;;;;;;;;;;5056007;28;20239;-87
2022/10/07 12:30:50;;;;;;;4.50;1.57;;;;;;;;;;5047424;28;20206;-88
2022/10/07 12:33:29;;;;;;;3.20;2.07;;;;;;;;;;5036986;28;20206;-87
2022/10/07 12:35:58;;;;;;;2.17;1.43;;;;;;;;;;5035768;28;20237;-88
2022/10/07 12:38:28;;;;;;;7.30;3.30;;;;;;;;;;5034654;28;20191;-88
2022/10/07 12:41:16;;;;;;;3.33;1.23;;;;;;;;;;5048076;28;20203;-87
2022/10/07 12:43:50;;;;;;;5.90;2.03;;;;;;;;;;5063840;28;20286;-88
2022/10/07 12:46:21;;;;;;;4.97;2.83;;;;;;;;;;5039855;28;20290;-86
2022/10/07 12:48:56;;;;;;;5.90;2.77;;;;;;;;;;5071389;28;20236;-87
2022/10/07 12:51:29;;;;;;;10.83;2.93;;;;;;;;;;5053014;28;20222;-87
2022/10/07 12:53:58;;;;;;;4.47;1.37;;;;;;;;;;5034906;28;20237;-87
2022/10/07 12:56:28;;;;;;;2.90;1.73;;;;;;;;;;5033981;28;20211;-87
2022/10/07 13:02:17;;;;;;;12.03;4.23;;;;;;;;;;5040220;28;20234;-86
2022/10/07 13:04:57;;;;;;;4.20;1.23;;;;;;;;;;5043757;28;20225;-85
2022/10/07 13:07:45;;;;;;;4.37;3.53;;;;;;;;;;5054786;28;20217;-86
2022/10/07 13:10:31;;;;;;;7.30;2.60;;;;;;;;;;5069668;28;20230;-86
2022/10/07 13:13:03;;;;;;;6.90;2.40;;;;;;;;;;5069168;28;20211;-86
2022/10/07 13:15:34;;;;;;;8.07;2.47;;;;;;;;;;5050940;28;20287;-86
2022/10/07 13:18:05;;;;;;;10.03;2.53;;;;;;;;;;5034217;28;20210;-86
2022/10/07 13:20:46;;;;;;;3.90;1.60;;;;;;;;;;5042185;28;20206;-86
2022/10/07 13:23:16;;;;;;;3.80;1.50;;;;;;;;;;5043605;28;20279;-86
2022/10/07 13:25:46;;;;;;;10.20;3.47;;;;;;;;;;5053231;28;20199;-86
2022/10/07 13:28:15;;;;;;;6.23;2.63;;;;;;;;;;5053116;28;20202;-87
2022/10/07 13:30:45;;;;;;;8.63;1.60;;;;;;;;;;5048564;28;20213;-86
2022/10/07 13:33:16;;;;;;;11.83;3.87;;;;;;;;;;5045139;28;20225;-86
2022/10/07 13:35:45;;;;;;;6.83;1.60;;;;;;;;;;5034693;28;20270;-85
2022/10/07 13:38:24;;;;;;;6.20;2.60;;;;;;;;;;5049440;28;20211;-86
2022/10/07 13:41:01;;;;;;;5.87;2.20;;;;;;;;;;5037700;28;20191;-85
2022/10/07 13:43:30;;;;;;;2.27;1.07;;;;;;;;;;5059965;28;20217;-86
2022/10/07 13:46:01;;;;;;;10.23;3.27;;;;;;;;;;5030502;28;20201;-86
2022/10/07 13:48:33;;;;;;;9.60;4.40;;;;;;;;;;5053114;28;20243;-86
2022/10/07 13:51:04;;;;;;;6.63;2.30;;;;;;;;;;5037557;28;20252;-86
2022/10/07 13:53:34;;;;;;;9.27;3.20;;;;;;;;;;5033647;28;20281;-86
2022/10/07 13:56:20;;;;;;;7.27;2.07;;;;;;;;;;5047533;28;20198;-86
2022/10/07 13:58:53;;;;;;;10.33;4.07;;;;;;;;;;5054281;28;20205;-86
2022/10/07 14:01:26;;;;;;;14.53;2.83;;;;;;;;;;5053581;28;20226;-86
2022/10/07 14:04:12;;;;;;;2.20;1.00;;;;;;;;;;5057032;28;20207;-86
2022/10/07 14:06:48;;;;;;;7.17;2.33;;;;;;;;;;5031485;28;20295;-86
2022/10/07 14:09:18;;;;;;;4.17;1.70;;;;;;;;;;5047015;28;20267;-86
2022/10/07 14:11:47;;;;;;;9.93;3.47;;;;;;;;;;5046799;28;20195;-87
2022/10/07 14:14:20;;;;;;;7.20;1.50;;;;;;;;;;5043532;28;20225;-86
2022/10/07 14:16:55;;;;;;;6.00;2.83;;;;;;;;;;5035482;28;20230;-86
2022/10/07 14:19:24;;;;;;;6.90;3.20;;;;;;;;;;5033192;28;20383;-86
2022/10/07 14:21:57;;;;;;;6.57;2.30;;;;;;;;;;5042797;28;20250;-85
2022/10/07 14:24:26;;;;;;;7.10;2.57;;;;;;;;;;5068181;28;20205;-86
2022/10/07 14:26:59;;;;;;;7.23;2.57;;;;;;;;;;5052228;28;20196;-86
2022/10/07 14:29:46;;;;;;;9.67;2.87;;;;;;;;;;5066535;28;20235;-86
2022/10/07 14:35:22;;;;;;;10.47;2.47;;;;;;;;;;5029160;28;20242;-86
2022/10/07 14:37:52;;;;;;;11.27;3.43;;;;;;;;;;5036065;28;20206;-86
2022/10/07 14:40:22;;;;;;;7.17;2.23;;;;;;;;;;5044598;28;20229;-86
2022/10/07 14:42:52;;;;;;;3.30;1.17;;;;;;;;;;5028645;28;20207;-87
2022/10/07 14:45:22;;;;;;;3.20;1.83;;;;;;;;;;5027368;28;20206;-86
2022/10/07 14:47:51;;;;;;;13.13;4.30;;;;;;;;;;5043160;28;20229;-87
2022/10/07 14:50:19;;;;;;;4.63;1.10;;;;;;;;;;5040949;28;20214;-87
2022/10/07 14:52:50;;;;;;;5.30;2.87;;;;;;;;;;5020795;28;20213;-87
2022/10/07 14:55:22;;;;;;;5.27;2.10;;;;;;;;;;5032588;28;20233;-86
2022/10/07 14:57:51;;;;;;;5.03;2.43;;;;;;;;;;5040412;28;20214;-86
2022/10/07 15:00:21;;;;;;;9.27;2.70;;;;;;;;;;5051144;28;20290;-86
2022/10/07 15:02:50;;;;;;;12.73;3.03;;;;;;;;;;5049033;28;20222;-85
2022/10/07 15:05:22;;;;;;;12.37;4.03;;;;;;;;;;5022247;28;20203;-85
2022/10/07 15:07:50;;;;;;;6.60;2.53;;;;;;;;;;5055267;28;20198;-85
2022/10/07 15:10:22;;;;;;;2.80;2.30;;;;;;;;;;5048880;28;20214;-86
2022/10/07 15:12:51;;;;;;;6.83;1.63;;;;;;;;;;5043307;28;20252;-86
2022/10/07 15:15:19;;;;;;;5.40;2.17;;;;;;;;;;5050365;28;20268;-85
2022/10/07 15:17:48;;;;;;;7.03;2.67;;;;;;;;;;5020089;28;20199;-85